Terminal Aerodrome Forecast
Issued by NWS

Home | Current Version | Previous Version | Text Only | Print | Product List | Glossary On
Versions: 1 2 3 4 5 6 7 8 9 10 11 12 13 14 15 16
000
FTUS41 KBTV 211700
TAFRUT
TAF
KRUT 211720Z 2118/2218 18009G17KT P6SM VCSH SCT100 SCT200
     FM220100 17007KT P6SM VCSH BKN035 OVC050
      TEMPO 2202/2206 BKN020
     FM220600 26005KT P6SM BKN050
     FM220900 29006KT P6SM OVC020
     FM221400 29010G20KT P6SM OVC025
      AMD LTD TO CLD VIS AND WIND=

USA.gov is the U.S. government's official web portal to all federal, state and local government web resources and services.